Time;durP1;ratioP1;P1;durP2;ratioP2;P2;SDS_P1;SDS_P2;PMS_P1;PMS_P2;Temp;Humidity;BMP_temperature;BMP_pressure;BME280_temperature;BME280_humidity;BME280_pressure;Samples;Min_cycle;Max_cycle;Signal;HPM_P1;HPM_P2
2024/02/13 00:01:39;;;;;;;8.27;7.47;;;4.70;99.90;;;5.42;100.00;97793.34;10404951;28;20316;-65
2024/02/13 00:06:42;;;;;;;8.77;6.87;;;4.70;99.90;;;5.38;100.00;97790.50;10404504;28;20256;-67
2024/02/13 00:11:46;;;;;;;8.50;6.70;;;4.70;99.90;;;5.25;100.00;97808.06;10400815;28;20229;-67
2024/02/13 00:16:51;;;;;;;8.10;6.53;;;4.60;99.90;;;5.26;100.00;97810.69;10398580;28;20225;-64
2024/02/13 00:21:55;;;;;;;8.00;7.13;;;4.60;99.90;;;5.30;100.00;97814.38;10404028;28;20597;-66
2024/02/13 00:26:59;;;;;;;8.60;7.23;;;4.60;99.90;;;5.20;100.00;97822.88;10401600;28;20232;-67
2024/02/13 00:32:04;;;;;;;8.10;6.60;;;4.50;99.90;;;4.95;100.00;97835.28;10405940;28;20232;-66
2024/02/13 00:37:08;;;;;;;11.90;9.13;;;4.30;99.90;;;4.92;100.00;97832.53;10382258;28;20232;-66
2024/02/13 00:42:12;;;;;;;9.20;8.23;;;4.20;99.90;;;4.88;100.00;97844.06;10397381;28;20648;-66
2024/02/13 00:47:18;;;;;;;8.93;7.97;;;4.20;99.90;;;4.74;100.00;97857.28;10403758;28;20230;-66
2024/02/13 00:52:22;;;;;;;8.53;7.40;;;4.00;99.90;;;4.71;100.00;97857.94;10406133;28;20229;-67
2024/02/13 00:57:28;;;;;;;6.27;5.63;;;4.00;99.90;;;4.60;100.00;97873.91;10403427;28;20229;-64
2024/02/13 01:02:34;;;;;;;6.73;5.20;;;3.90;99.90;;;4.63;100.00;97888.47;10401343;28;20230;-66
2024/02/13 01:07:37;;;;;;;7.43;5.27;;;4.00;99.90;;;4.72;100.00;97904.38;10396177;28;20772;-66
2024/02/13 01:12:40;;;;;;;6.37;5.30;;;4.10;99.90;;;4.79;100.00;97911.72;10405946;28;20617;-66
2024/02/13 01:17:45;;;;;;;5.67;5.17;;;4.10;99.90;;;4.83;100.00;97923.84;10397160;28;20248;-66
2024/02/13 01:22:48;;;;;;;6.33;5.47;;;4.20;99.90;;;4.91;100.00;97927.88;10401385;28;20470;-65
2024/02/13 01:27:51;;;;;;;5.73;5.20;;;4.30;99.90;;;4.92;100.00;97929.66;10405412;28;20221;-66
2024/02/13 01:32:55;;;;;;;6.77;5.57;;;4.30;99.90;;;4.94;100.00;97933.19;10400086;28;20278;-67
2024/02/13 01:37:59;;;;;;;7.67;6.33;;;4.30;99.90;;;4.85;100.00;97940.06;10396076;28;20624;-67
2024/02/13 01:43:02;;;;;;;6.90;6.20;;;4.20;99.90;;;4.78;100.00;97947.03;10398827;28;20344;-66
2024/02/13 01:48:10;;;;;;;6.40;5.60;;;4.10;99.90;;;4.78;100.00;97947.94;10397528;28;20229;-67
2024/02/13 01:53:15;;;;;;;6.10;5.47;;;4.00;99.90;;;4.64;100.00;97951.00;10395114;28;20451;-67
2024/02/13 01:58:20;;;;;;;6.40;5.90;;;4.00;99.90;;;4.57;100.00;97956.31;10399501;28;20286;-66
2024/02/13 02:03:24;;;;;;;6.57;5.90;;;3.90;99.90;;;4.48;100.00;97959.84;10392042;28;20823;-66
2024/02/13 02:08:28;;;;;;;6.17;5.57;;;3.80;99.90;;;4.50;100.00;97967.59;10393534;28;20575;-67
2024/02/13 02:13:32;;;;;;;6.63;5.97;;;3.80;99.90;;;4.49;100.00;97966.72;10392519;28;20350;-66
2024/02/13 02:18:36;;;;;;;6.37;5.80;;;3.80;99.90;;;4.53;100.00;97977.09;10394075;28;20224;-67
2024/02/13 02:23:40;;;;;;;7.30;5.73;;;3.90;99.90;;;4.64;100.00;97981.38;10397748;28;20241;-67
2024/02/13 02:28:45;;;;;;;5.50;4.93;;;4.00;99.90;;;4.67;100.00;97982.50;10396575;28;20225;-66
2024/02/13 02:33:49;;;;;;;5.20;4.60;;;4.00;99.90;;;4.68;100.00;97988.44;10404936;28;20233;-67
2024/02/13 02:38:53;;;;;;;5.63;4.87;;;4.00;99.90;;;4.81;100.00;98000.44;10394730;28;20597;-67
2024/02/13 02:43:58;;;;;;;4.73;4.30;;;4.10;99.90;;;4.71;100.00;98004.75;10399059;28;20315;-67
2024/02/13 02:49:01;;;;;;;7.93;5.23;;;4.10;99.90;;;4.67;100.00;98012.00;10398720;28;20225;-67
2024/02/13 02:54:06;;;;;;;7.17;4.93;;;4.00;99.90;;;4.62;100.00;98016.66;10400995;28;20263;-67
2024/02/13 02:59:10;;;;;;;5.63;5.13;;;4.00;99.90;;;4.68;100.00;98017.16;10400898;28;20233;-66
2024/02/13 03:04:13;;;;;;;6.43;5.13;;;4.10;99.90;;;4.57;100.00;98015.41;10396960;28;20332;-67
2024/02/13 03:09:17;;;;;;;6.03;5.37;;;4.00;99.90;;;4.70;100.00;98022.38;10399172;28;20288;-67
2024/02/13 03:14:21;;;;;;;5.77;5.20;;;4.10;99.90;;;4.60;100.00;98035.03;10402133;28;20229;-67
2024/02/13 03:19:24;;;;;;;6.07;5.47;;;4.00;99.90;;;4.73;100.00;98033.63;10401264;28;20261;-66
2024/02/13 03:24:28;;;;;;;5.70;5.10;;;4.20;99.90;;;4.84;100.00;98038.72;10401130;28;20233;-67
2024/02/13 03:29:32;;;;;;;9.10;5.93;;;4.30;99.90;;;4.89;100.00;98045.00;10403301;28;20233;-66
2024/02/13 03:34:35;;;;;;;5.90;5.20;;;4.30;99.90;;;4.96;100.00;98053.25;10405147;28;20291;-67
2024/02/13 03:39:42;;;;;;;5.80;5.17;;;4.40;99.90;;;5.09;100.00;98055.09;10400925;28;20232;-67
2024/02/13 03:44:47;;;;;;;8.87;4.93;;;4.50;99.90;;;5.17;100.00;98063.34;10406703;28;20802;-66
2024/02/13 03:49:50;;;;;;;5.57;4.97;;;4.50;99.90;;;5.06;100.00;98064.09;10403881;28;20307;-67
2024/02/13 03:54:53;;;;;;;5.57;4.97;;;4.40;99.90;;;5.10;100.00;98067.03;10400490;28;20229;-67
2024/02/13 03:59:58;;;;;;;6.40;5.17;;;4.40;99.90;;;5.16;100.00;98061.56;10400070;28;20239;-66
2024/02/13 04:05:02;;;;;;;5.13;4.73;;;4.50;99.90;;;5.17;100.00;98068.41;10400472;28;20226;-66
2024/02/13 04:10:06;;;;;;;5.87;5.27;;;4.40;99.90;;;5.11;100.00;98072.97;10399688;28;20236;-66
2024/02/13 04:15:13;;;;;;;5.40;4.90;;;4.40;99.90;;;5.10;100.00;98079.69;10407785;28;20225;-66
2024/02/13 04:20:17;;;;;;;5.50;5.00;;;4.40;99.90;;;5.11;100.00;98080.56;10401897;28;20597;-66
2024/02/13 04:25:20;;;;;;;5.80;5.30;;;4.40;99.90;;;5.14;100.00;98083.34;10398514;28;20230;-66
2024/02/13 04:30:25;;;;;;;6.93;5.00;;;4.40;99.90;;;5.06;100.00;98081.84;10397025;28;20221;-67
2024/02/13 04:35:28;;;;;;;6.20;4.97;;;4.30;99.90;;;4.97;100.00;98089.56;10404053;28;20237;-67
2024/02/13 04:40:32;;;;;;;6.67;5.33;;;4.30;99.90;;;4.75;100.00;98089.47;10395432;28;20225;-67
2024/02/13 04:45:37;;;;;;;7.03;5.30;;;4.10;99.90;;;4.78;100.00;98083.75;10397286;28;20626;-67
2024/02/13 04:50:40;;;;;;;7.23;6.27;;;4.20;99.90;;;4.89;100.00;98091.50;10396746;28;20234;-67
2024/02/13 04:55:43;;;;;;;7.90;6.27;;;4.20;99.90;;;4.86;100.00;98091.22;10400401;28;20722;-66
2024/02/13 05:00:51;;;;;;;7.07;5.97;;;4.20;99.90;;;4.88;100.00;98094.78;10399701;28;20228;-66
2024/02/13 05:11:15;;;;;;;7.27;5.40;;;4.20;99.90;;;4.88;100.00;98098.94;10394298;28;20263;-67
2024/02/13 05:16:20;;;;;;;8.50;5.70;;;4.20;99.90;;;4.85;100.00;98099.59;10396445;28;20222;-66
2024/02/13 05:21:24;;;;;;;6.97;5.73;;;4.20;99.90;;;4.91;100.00;98099.22;10398488;28;20244;-67
2024/02/13 05:26:27;;;;;;;7.17;5.77;;;4.20;99.90;;;4.96;100.00;98106.44;10397501;28;20236;-67
2024/02/13 05:31:32;;;;;;;6.83;6.23;;;4.30;99.90;;;5.01;100.00;98105.91;10396055;28;20530;-66
2024/02/13 05:36:35;;;;;;;7.47;5.90;;;4.30;99.90;;;5.00;100.00;98110.09;10401977;28;20229;-67
2024/02/13 05:41:40;;;;;;;8.10;7.40;;;4.30;99.90;;;4.89;100.00;98116.81;10390528;28;20225;-68
2024/02/13 05:46:45;;;;;;;8.40;7.60;;;4.20;99.90;;;4.87;100.00;98112.38;10394204;28;20240;-66
2024/02/13 05:51:49;;;;;;;8.60;7.80;;;4.20;99.90;;;4.88;100.00;98117.56;10399266;28;20624;-66
2024/02/13 05:56:52;;;;;;;7.20;6.33;;;4.30;99.90;;;4.92;100.00;98114.53;10398603;28;20232;-67
2024/02/13 06:01:56;;;;;;;7.03;6.40;;;4.30;99.90;;;4.95;100.00;98124.94;10405027;28;20308;-66
2024/02/13 06:06:59;;;;;;;8.90;6.83;;;4.40;99.90;;;4.95;100.00;98127.47;10394560;28;20225;-67
2024/02/13 06:12:03;;;;;;;9.57;6.50;;;4.30;99.90;;;5.01;100.00;98136.28;10397511;28;20240;-66
2024/02/13 06:17:08;;;;;;;6.30;5.70;;;4.30;99.90;;;4.93;100.00;98133.16;10399531;28;20238;-66
2024/02/13 06:22:11;;;;;;;5.17;4.57;;;4.20;99.90;;;4.85;100.00;98145.16;10391047;28;20540;-67
2024/02/13 06:27:14;;;;;;;5.67;4.93;;;4.10;99.90;;;4.74;100.00;98145.91;10398185;28;20240;-66
2024/02/13 06:32:19;;;;;;;7.60;5.27;;;4.10;99.90;;;4.66;100.00;98168.03;10395858;28;20232;-66
2024/02/13 06:37:23;;;;;;;7.70;5.60;;;4.00;99.90;;;4.63;100.00;98166.91;10395390;28;20582;-66
2024/02/13 06:42:26;;;;;;;8.07;7.27;;;4.00;99.90;;;4.64;100.00;98169.59;10393653;28;20319;-67
2024/02/13 06:47:30;;;;;;;6.70;6.20;;;4.00;99.90;;;4.67;100.00;98179.97;10392060;28;20230;-66
2024/02/13 06:52:34;;;;;;;7.27;6.27;;;4.10;99.90;;;4.77;100.00;98189.22;10394372;28;20225;-67
2024/02/13 06:57:37;;;;;;;5.90;5.33;;;4.20;99.90;;;4.81;100.00;98198.84;10394587;28;20236;-66
2024/02/13 07:02:42;;;;;;;7.40;5.80;;;4.20;99.90;;;4.76;100.00;98197.56;10398975;28;20221;-66
2024/02/13 07:07:46;;;;;;;7.30;4.93;;;4.10;99.90;;;4.78;100.00;98202.75;10390622;28;20238;-66
2024/02/13 07:12:51;;;;;;;6.27;5.10;;;4.10;99.90;;;4.85;100.00;98205.06;10400656;28;20229;-66
2024/02/13 07:17:56;;;;;;;5.30;4.53;;;4.20;99.90;;;5.11;100.00;98213.19;10399445;28;21077;-66
2024/02/13 07:23:04;;;;;;;4.30;3.80;;;4.40;99.90;;;5.35;100.00;98209.28;10397230;28;20221;-66
2024/02/13 07:28:07;;;;;;;4.27;3.87;;;4.70;99.90;;;5.50;100.00;98211.31;10388781;28;20743;-67
2024/02/13 07:33:12;;;;;;;8.23;5.50;;;4.80;99.90;;;5.54;100.00;98213.31;10398076;28;20304;-66
2024/02/13 07:38:16;;;;;;;4.67;4.13;;;5.00;99.90;;;5.72;100.00;98224.06;10389957;28;20683;-67
2024/02/13 07:43:19;;;;;;;5.10;4.23;;;5.10;99.90;;;5.79;100.00;98222.19;10388626;28;20581;-66
2024/02/13 07:48:24;;;;;;;5.70;3.67;;;5.20;99.90;;;6.00;100.00;98232.31;10394456;28;20256;-67
2024/02/13 07:53:27;;;;;;;5.20;4.20;;;5.30;99.90;;;6.25;100.00;98236.06;10390827;28;20248;-67
2024/02/13 07:58:30;;;;;;;6.27;5.17;;;5.50;99.90;;;6.19;100.00;98235.56;10390805;28;20226;-67
2024/02/13 08:03:36;;;;;;;8.10;6.20;;;5.50;99.90;;;6.05;100.00;98241.19;10392966;28;20241;-67
2024/02/13 08:08:39;;;;;;;5.10;4.53;;;5.40;99.90;;;6.09;100.00;98241.56;10402617;28;20237;-67
2024/02/13 08:13:42;;;;;;;7.47;5.53;;;5.50;99.90;;;6.37;100.00;98245.41;10402277;28;20237;-67
2024/02/13 08:18:50;;;;;;;6.13;5.53;;;5.60;99.90;;;6.51;100.00;98249.91;10397962;28;20724;-66
2024/02/13 08:23:53;;;;;;;6.83;6.23;;;5.70;99.90;;;6.46;100.00;98244.47;10399546;28;20609;-66
2024/02/13 08:28:56;;;;;;;7.97;5.90;;;5.70;99.90;;;6.40;100.00;98246.53;10403913;28;20245;-66
2024/02/13 08:34:01;;;;;;;6.77;6.00;;;5.70;99.90;;;6.53;100.00;98248.41;10378348;28;20253;-66
2024/02/13 08:39:05;;;;;;;6.17;5.57;;;5.80;99.90;;;6.69;100.00;98250.47;10392338;28;20225;-66
2024/02/13 08:44:09;;;;;;;6.03;5.33;;;6.10;99.90;;;6.89;100.00;98252.03;10396128;28;20225;-66
2024/02/13 08:49:17;;;;;;;5.90;5.17;;;6.20;99.90;;;6.97;100.00;98244.22;10393813;28;20279;-66
2024/02/13 08:54:21;;;;;;;12.27;9.17;;;6.30;99.90;;;7.24;100.00;98242.03;10397811;28;20313;-66
2024/02/13 08:59:24;;;;;;;13.17;10.07;;;6.50;99.90;;;7.47;100.00;98248.88;10403014;28;20240;-66
2024/02/13 09:04:28;;;;;;;9.67;7.30;;;6.70;99.90;;;7.57;99.24;98253.84;10395335;28;20241;-66
2024/02/13 09:09:32;;;;;;;8.07;6.20;;;6.80;99.90;;;7.58;99.36;98258.19;10398301;28;20218;-66
2024/02/13 09:14:36;;;;;;;6.73;5.30;;;6.90;99.90;;;7.72;99.25;98266.81;10403966;28;20236;-66
2024/02/13 09:19:42;;;;;;;9.13;5.37;;;7.00;99.90;;;7.96;97.16;98267.75;10393732;28;20950;-66
2024/02/13 09:24:50;;;;;;;7.43;5.20;;;7.20;99.90;;;8.70;94.45;98260.34;10397345;28;20583;-66
2024/02/13 09:29:55;;;;;;;6.70;4.53;;;7.90;99.90;;;9.00;89.33;98264.19;10405118;28;20229;-66
2024/02/13 09:35:00;;;;;;;7.97;4.30;;;8.20;99.90;;;9.11;88.77;98262.38;10412144;28;21545;-66
2024/02/13 09:40:06;;;;;;;6.10;4.05;;;8.30;99.90;;;9.26;88.07;98260.88;10398444;28;20813;-67
2024/02/13 09:45:11;;;;;;;6.32;4.65;;;8.40;99.90;;;9.38;85.84;98264.25;10399874;28;20315;-66
2024/02/13 09:50:16;;;;;;;6.30;2.95;;;8.50;99.90;;;9.63;82.33;98263.38;10392508;28;20233;-67
2024/02/13 09:55:20;;;;;;;4.13;2.50;;;8.80;99.90;;;9.74;81.82;98259.88;10403425;28;20240;-66
2024/02/13 10:00:24;;;;;;;6.22;3.13;;;9.10;99.90;;;9.98;80.57;98264.81;10376060;28;20367;-66
2024/02/13 10:05:28;;;;;;;5.00;2.65;;;9.30;99.90;;;10.34;77.08;98268.91;10389973;28;20234;-66
2024/02/13 10:10:32;;;;;;;4.25;3.08;;;9.50;99.90;;;10.07;77.59;98271.44;10399062;28;20332;-66
2024/02/13 10:15:39;;;;;;;3.85;2.83;;;9.30;99.90;;;9.95;79.54;98269.72;10402940;28;20226;-66
2024/02/13 10:20:46;;;;;;;6.10;3.00;;;9.10;99.90;;;10.09;77.08;98268.97;10395550;28;20588;-66
2024/02/13 10:25:49;;;;;;;6.03;3.08;;;9.30;99.90;;;10.23;75.33;98257.97;10401611;28;20295;-66
2024/02/13 10:30:53;;;;;;;6.07;2.70;;;9.40;99.90;;;10.28;76.43;98261.75;10396163;28;20221;-66
2024/02/13 10:35:58;;;;;;;4.97;2.45;;;9.50;99.90;;;10.77;74.06;98262.31;10404137;28;20229;-66
2024/02/13 10:41:07;;;;;;;4.18;3.42;;;10.10;99.90;;;10.86;72.81;98263.66;10398890;28;20323;-66
2024/02/13 10:46:12;;;;;;;4.25;3.17;;;10.30;99.90;;;11.36;69.65;98263.31;10398790;28;20454;-66
2024/02/13 10:51:19;;;;;;;11.18;7.28;;;10.70;99.90;;;11.85;65.73;98263.69;10400119;28;20247;-66
2024/02/13 10:56:25;;;;;;;5.10;2.78;;;11.40;99.90;;;11.98;65.22;98258.50;10387806;28;20244;-66
2024/02/13 11:01:29;;;;;;;5.93;4.65;;;11.50;99.90;;;12.02;65.86;98263.03;10400406;28;20221;-66
2024/02/13 11:06:34;;;;;;;8.23;4.43;;;11.40;99.90;;;11.59;65.50;98263.03;10394010;28;20721;-66
2024/02/13 11:11:38;;;;;;;4.13;2.47;;;10.80;99.90;;;10.93;68.53;98264.16;10388446;28;20717;-66
2024/02/13 11:16:41;;;;;;;3.80;2.50;;;10.20;99.90;;;10.53;70.78;98264.22;10399127;28;20236;-66
2024/02/13 11:21:51;;;;;;;3.22;2.10;;;10.00;99.90;;;10.54;71.38;98271.06;10390171;28;20233;-66
2024/02/13 11:26:54;;;;;;;4.85;3.65;;;10.00;99.90;;;10.49;68.61;98256.22;10391812;28;21004;-67
2024/02/13 11:31:59;;;;;;;5.80;3.80;;;9.90;99.90;;;10.45;70.91;98264.50;10403213;28;21575;-66
2024/02/13 11:37:18;;;;;;;4.07;2.20;;;9.80;99.90;;;10.50;70.26;98264.00;10404970;28;20233;-66
2024/02/13 11:42:22;;;;;;;4.15;2.25;;;9.70;99.90;;;10.43;71.04;98251.63;10406885;28;20230;-68
2024/02/13 11:47:26;;;;;;;3.55;2.17;;;9.70;99.90;;;10.50;70.41;98243.56;10421850;28;20614;-66
2024/02/13 11:52:32;;;;;;;3.10;2.53;;;9.70;99.90;;;10.62;68.73;98246.00;10403871;28;20220;-66
2024/02/13 11:57:35;;;;;;;3.17;2.88;;;9.70;99.90;;;10.88;70.98;98231.41;10399163;28;20776;-66
2024/02/13 12:02:39;;;;;;;3.00;2.10;;;9.90;99.90;;;11.01;67.37;98218.56;10399275;28;21851;-66
2024/02/13 12:07:46;;;;;;;3.03;2.05;;;10.00;99.90;;;10.91;67.25;98226.50;10397592;28;20226;-67
2024/02/13 12:12:52;;;;;;;4.50;2.75;;;9.90;99.90;;;10.75;68.18;98222.97;10404989;28;20225;-66
2024/02/13 12:17:57;;;;;;;3.45;2.70;;;9.90;99.90;;;10.60;67.78;98209.22;10406355;28;20234;-66
2024/02/13 12:23:05;;;;;;;3.58;2.20;;;9.80;99.90;;;10.51;67.62;98218.88;10409773;28;20630;-66
2024/02/13 12:28:12;;;;;;;3.58;2.30;;;9.80;99.90;;;10.27;68.74;98205.44;10400805;28;20283;-67
2024/02/13 12:33:20;;;;;;;4.60;3.15;;;9.60;99.90;;;10.33;70.20;98206.72;10412013;28;20761;-67
2024/02/13 12:38:28;;;;;;;9.05;5.57;;;9.70;99.90;;;10.51;69.34;98211.22;10404405;28;20237;-67
2024/02/13 12:43:33;;;;;;;3.00;2.33;;;9.70;99.90;;;10.70;68.31;98208.13;10413247;28;20424;-67
2024/02/13 12:48:42;;;;;;;3.25;2.08;;;9.90;99.90;;;10.64;66.56;98208.63;10408045;28;20236;-67
2024/02/13 12:53:50;;;;;;;4.97;2.60;;;9.90;99.90;;;10.71;66.12;98208.22;10409439;28;20320;-67
2024/02/13 12:58:53;;;;;;;2.55;2.20;;;10.00;99.90;;;10.82;65.33;98199.56;10402782;28;20789;-67
2024/02/13 13:03:58;;;;;;;3.67;2.10;;;10.00;99.90;;;10.91;64.30;98195.78;10398318;28;20272;-67
2024/02/13 13:09:03;;;;;;;3.10;2.13;;;10.00;99.90;;;10.88;61.94;98195.63;10396619;28;20229;-67
2024/02/13 13:14:20;;;;;;;3.25;2.03;;;10.10;99.90;;;10.75;62.25;98191.41;10410530;28;20272;-67
2024/02/13 13:19:26;;;;;;;2.95;2.13;;;10.00;99.90;;;10.59;64.03;98187.91;10403332;28;20294;-67
2024/02/13 13:24:33;;;;;;;3.70;2.00;;;9.90;99.90;;;10.64;64.32;98189.84;10412406;28;20233;-67
2024/02/13 13:29:38;;;;;;;2.28;2.08;;;9.90;99.90;;;10.80;63.80;98185.78;10405434;28;20236;-67
2024/02/13 13:34:43;;;;;;;2.35;2.00;;;10.20;99.90;;;10.97;63.48;98197.03;10399218;28;20593;-67
2024/02/13 13:39:48;;;;;;;3.00;1.88;;;10.30;99.90;;;10.87;63.68;98193.81;10402428;28;20228;-67
2024/02/13 13:44:52;;;;;;;3.45;2.10;;;10.20;99.90;;;10.70;63.25;98201.38;10404792;28;20228;-66
2024/02/13 13:49:55;;;;;;;2.05;1.85;;;10.00;99.90;;;10.56;64.30;98187.72;10399879;28;20267;-66
2024/02/13 13:54:59;;;;;;;1.60;1.50;;;9.90;99.90;;;10.60;63.31;98189.66;10413931;28;20251;-66
2024/02/13 14:00:09;;;;;;;2.65;1.98;;;9.90;99.90;;;10.63;62.17;98201.75;10408407;28;20652;-70
2024/02/13 14:05:12;;;;;;;2.70;1.88;;;10.00;99.90;;;10.59;61.77;98202.38;10409373;28;20221;-67
2024/02/13 14:10:17;;;;;;;2.83;1.73;;;10.00;99.90;;;10.63;60.84;98204.31;10401025;28;20222;-67
2024/02/13 14:15:21;;;;;;;3.90;2.17;;;10.00;99.90;;;10.69;62.54;98207.25;10405053;28;20243;-66
2024/02/13 14:20:25;;;;;;;4.32;2.10;;;10.00;99.90;;;10.86;62.36;98207.41;10404481;28;20229;-66
2024/02/13 14:25:30;;;;;;;3.08;1.98;;;10.10;99.90;;;10.72;62.52;98199.75;10409211;28;20230;-66
2024/02/13 14:30:33;;;;;;;2.78;1.90;;;10.00;99.90;;;10.70;62.61;98205.56;10400070;28;20240;-66
2024/02/13 14:35:36;;;;;;;2.50;1.92;;;10.00;99.90;;;10.77;63.61;98208.59;10409916;28;21332;-66
2024/02/13 14:40:41;;;;;;;1.80;1.70;;;10.00;99.90;;;10.80;62.28;98208.78;10401185;28;20228;-66
2024/02/13 14:45:45;;;;;;;2.65;1.80;;;10.00;99.90;;;10.70;63.68;98214.16;10408499;28;20240;-66
2024/02/13 14:50:49;;;;;;;3.33;2.50;;;9.90;99.90;;;10.67;62.23;98219.03;10410827;28;20740;-67
2024/02/13 14:55:54;;;;;;;2.80;2.00;;;9.90;99.90;;;10.59;64.57;98212.59;10401540;28;20229;-67
2024/02/13 15:00:57;;;;;;;2.70;2.50;;;9.80;99.90;;;10.60;63.88;98212.66;10403082;28;20228;-67
2024/02/13 15:06:01;;;;;;;6.28;4.20;;;9.80;99.90;;;10.68;63.12;98214.84;10404656;28;20229;-67
2024/02/13 15:11:08;;;;;;;3.80;2.80;;;9.90;99.90;;;10.54;63.65;98219.09;10387152;28;20218;-66
2024/02/13 15:16:12;;;;;;;2.67;2.47;;;9.80;99.90;;;10.53;64.60;98219.84;10393561;28;20230;-66
2024/02/13 15:21:16;;;;;;;3.22;2.53;;;9.70;99.90;;;10.56;65.32;98218.38;10402161;28;20236;-67
2024/02/13 15:26:21;;;;;;;2.53;2.33;;;9.70;99.90;;;10.54;65.46;98226.75;10400962;28;20242;-66
2024/02/13 15:31:24;;;;;;;2.67;2.40;;;9.80;99.90;;;10.54;64.97;98229.31;10396319;28;20225;-66
2024/02/13 15:36:38;;;;;;;2.42;1.90;;;9.70;99.90;;;10.49;65.53;98235.78;10395633;28;20229;-67
2024/02/13 15:47:04;;;;;;;2.95;2.28;;;9.50;99.90;;;10.15;65.15;98239.59;10397229;28;20224;-66
2024/02/13 15:52:10;;;;;;;2.20;1.90;;;9.30;99.90;;;10.04;66.08;98240.56;10397110;28;20702;-65
2024/02/13 15:57:15;;;;;;;2.33;2.22;;;9.20;99.90;;;9.87;66.89;98242.03;10394715;28;20311;-67
2024/02/13 16:02:19;;;;;;;2.40;2.20;;;9.10;99.90;;;9.72;65.14;98251.22;10393811;28;20619;-65
2024/02/13 16:07:22;;;;;;;2.55;2.35;;;8.90;99.90;;;9.48;67.15;98251.34;10405311;28;20575;-65
2024/02/13 16:12:27;;;;;;;2.15;2.05;;;8.70;99.90;;;9.37;67.15;98264.16;10398039;28;20228;-66
2024/02/13 16:17:31;;;;;;;2.58;2.38;;;8.60;99.90;;;9.17;68.67;98262.78;10398646;28;20225;-66
2024/02/13 16:22:35;;;;;;;2.88;2.15;;;8.40;99.90;;;9.01;68.85;98271.94;10394520;28;20240;-66
2024/02/13 16:27:40;;;;;;;3.47;2.00;;;8.20;99.90;;;8.80;68.50;98270.44;10390486;28;20229;-66
2024/02/13 16:32:43;;;;;;;3.28;2.90;;;8.00;99.90;;;8.68;70.54;98277.22;10398619;28;20614;-65
2024/02/13 16:37:46;;;;;;;3.30;2.90;;;7.80;99.90;;;8.49;71.55;98286.06;10404926;28;20237;-65
2024/02/13 16:42:52;;;;;;;8.68;7.88;;;7.70;99.90;;;8.31;73.01;98297.47;10399062;28;20230;-65
2024/02/13 16:47:59;;;;;;;9.30;8.60;;;7.50;99.90;;;8.13;73.96;98302.97;10402791;28;20326;-65
2024/02/13 16:53:04;;;;;;;6.53;5.95;;;7.30;99.90;;;7.87;74.25;98300.19;10396602;28;20244;-65
2024/02/13 16:58:09;;;;;;;14.83;13.10;;;7.00;99.90;;;7.68;76.46;98306.41;10395168;28;20237;-67
2024/02/13 17:03:13;;;;;;;8.77;7.97;;;6.90;99.90;;;7.52;77.50;98311.09;10387934;28;20255;-65
2024/02/13 17:08:16;;;;;;;7.00;6.40;;;6.70;99.90;;;7.49;78.64;98327.81;10401265;28;20225;-66
2024/02/13 17:13:21;;;;;;;4.60;4.20;;;6.70;99.90;;;7.36;80.37;98320.91;10405262;28;20319;-65
2024/02/13 17:18:25;;;;;;;3.47;3.13;;;6.50;99.90;;;7.27;81.55;98325.25;10394691;22;20225;-66
2024/02/13 17:23:29;;;;;;;2.93;2.70;;;6.50;99.90;;;7.02;81.14;98331.00;10398923;28;20258;-64
2024/02/13 17:28:33;;;;;;;3.20;2.80;;;6.20;99.90;;;7.00;81.66;98329.97;10390070;28;20304;-66
2024/02/13 17:33:37;;;;;;;4.07;3.80;;;6.30;99.90;;;6.97;82.72;98339.91;10389333;28;20232;-65
2024/02/13 17:38:40;;;;;;;3.57;2.80;;;6.20;99.90;;;6.73;83.87;98339.75;10389325;28;20309;-67
2024/02/13 17:43:45;;;;;;;3.70;3.30;;;6.10;99.90;;;6.79;84.06;98341.00;10386403;28;20237;-66
2024/02/13 17:48:48;;;;;;;6.07;4.70;;;6.10;99.90;;;6.65;86.22;98350.06;10389758;28;20687;-63
2024/02/13 17:53:53;;;;;;;4.20;3.23;;;5.90;99.90;;;6.57;86.44;98346.91;10383247;28;20583;-64
2024/02/13 17:59:00;;;;;;;3.73;3.43;;;5.80;99.90;;;6.52;86.51;98338.94;10389228;28;20309;-64
2024/02/13 18:04:03;;;;;;;5.30;4.67;;;5.80;99.90;;;6.37;87.53;98342.75;10385768;28;20303;-64
2024/02/13 18:09:09;;;;;;;6.03;4.50;;;5.70;99.90;;;6.29;87.38;98333.63;10387281;28;20241;-64
2024/02/13 18:14:14;;;;;;;5.50;4.50;;;5.60;99.90;;;6.21;88.32;98335.56;10386414;28;20236;-64
2024/02/13 18:19:19;;;;;;;4.90;4.40;;;5.50;99.90;;;6.23;89.74;98335.69;10385574;28;20628;-64
2024/02/13 18:24:22;;;;;;;6.67;5.50;;;5.60;99.90;;;6.13;89.90;98339.13;10382434;28;20233;-64
2024/02/13 18:29:27;;;;;;;7.30;6.43;;;5.50;99.90;;;6.11;90.05;98340.63;10380906;28;20237;-64
2024/02/13 18:34:30;;;;;;;6.40;5.80;;;5.40;99.90;;;6.05;90.64;98342.69;10380291;28;20250;-64
2024/02/13 18:39:33;;;;;;;6.07;5.47;;;5.30;99.90;;;5.95;91.63;98340.13;10378845;28;20237;-64
2024/02/13 18:44:39;;;;;;;6.57;5.40;;;5.30;99.90;;;5.82;92.52;98336.56;10377426;28;20217;-63
2024/02/13 18:49:43;;;;;;;5.13;4.70;;;5.10;99.90;;;5.63;92.02;98335.78;10370586;28;20228;-64
2024/02/13 18:54:46;;;;;;;5.90;5.37;;;4.90;99.90;;;5.63;92.23;98349.34;10381270;28;20264;-63
2024/02/13 18:59:50;;;;;;;6.93;5.03;;;4.90;99.90;;;5.50;92.62;98348.22;10384263;28;20230;-64
2024/02/13 19:04:54;;;;;;;6.53;5.20;;;4.80;99.90;;;5.54;94.27;98351.13;10375506;28;20337;-63
2024/02/13 19:09:57;;;;;;;8.27;6.90;;;4.80;99.90;;;5.55;94.47;98344.38;10374891;28;20230;-63
2024/02/13 19:15:03;;;;;;;7.20;6.60;;;4.80;99.90;;;5.59;94.35;98352.41;10376066;28;20225;-64
2024/02/13 19:20:09;;;;;;;5.23;4.77;;;4.90;99.90;;;5.59;94.01;98346.44;10361933;28;20390;-63
2024/02/13 19:25:13;;;;;;;5.17;4.67;;;4.90;99.90;;;5.58;94.16;98349.72;10373494;28;20240;-64
2024/02/13 19:30:17;;;;;;;4.13;3.73;;;4.90;99.90;;;5.60;94.62;98356.69;10374644;28;20225;-64
2024/02/13 19:35:22;;;;;;;4.63;3.10;;;4.80;99.90;;;5.52;94.98;98359.34;10372759;28;20739;-63
2024/02/13 19:40:25;;;;;;;3.67;3.47;;;4.70;99.90;;;5.42;94.82;98361.09;10373289;28;20649;-63
2024/02/13 19:45:29;;;;;;;3.80;3.50;;;4.70;99.90;;;5.32;94.36;98363.63;10371314;28;20240;-63
2024/02/13 19:50:32;;;;;;;8.33;6.43;;;4.60;99.90;;;5.29;94.10;98362.47;10369841;28;20222;-63
2024/02/13 19:55:37;;;;;;;34.77;23.40;;;4.60;99.90;;;5.37;94.35;98362.34;10370140;28;20226;-63
2024/02/13 20:00:42;;;;;;;15.00;12.00;;;4.60;99.90;;;5.16;94.01;98358.00;10372887;28;20229;-63
2024/02/13 20:05:45;;;;;;;18.03;14.20;;;4.40;99.90;;;5.01;93.72;98359.19;10382399;28;20486;-63
2024/02/13 20:10:49;;;;;;;9.20;8.30;;;4.30;99.90;;;4.92;94.99;98365.28;10380345;28;20230;-64
2024/02/13 20:15:54;;;;;;;8.10;7.30;;;4.20;99.90;;;4.85;96.12;98362.94;10379652;28;20600;-64
2024/02/13 20:20:57;;;;;;;6.17;5.53;;;4.20;99.90;;;4.88;96.57;98367.41;10375498;28;20230;-63
2024/02/13 20:26:00;;;;;;;6.00;5.40;;;4.20;99.90;;;4.82;96.16;98362.69;10386408;28;20237;-63
2024/02/13 20:31:07;;;;;;;6.10;5.47;;;4.20;99.90;;;4.84;96.54;98363.72;10381717;28;20224;-64
2024/02/13 20:36:10;;;;;;;8.10;5.53;;;4.20;99.90;;;4.75;96.61;98368.00;10391972;28;20631;-64
2024/02/13 20:41:14;;;;;;;5.70;5.17;;;4.10;99.90;;;4.73;96.90;98369.50;10380341;28;20457;-63
2024/02/13 20:46:18;;;;;;;5.23;4.43;;;4.00;99.90;;;4.75;97.08;98375.59;10382347;28;20246;-63
2024/02/13 20:51:22;;;;;;;5.70;5.07;;;4.00;99.90;;;4.54;97.85;98366.09;10376622;28;20233;-62
2024/02/13 20:56:25;;;;;;;7.77;6.20;;;3.80;99.90;;;4.37;98.81;98368.00;10379973;28;20231;-63
2024/02/13 21:01:38;;;;;;;5.53;5.03;;;3.60;99.90;;;4.30;98.21;98368.22;10378440;28;20229;-62
2024/02/13 21:06:41;;;;;;;7.13;6.37;;;3.60;99.90;;;4.23;99.10;98369.28;10378486;28;20792;-63
2024/02/13 21:11:47;;;;;;;5.33;4.87;;;3.50;99.90;;;4.21;98.86;98367.41;10376456;28;20308;-63
2024/02/13 21:16:51;;;;;;;5.77;4.93;;;3.40;99.90;;;4.13;99.00;98374.31;10376316;28;20230;-63
2024/02/13 21:27:16;;;;;;;5.60;5.10;;;3.30;99.90;;;3.99;99.91;98383.16;10375602;28;20610;-63
2024/02/13 21:32:21;;;;;;;6.00;5.50;;;3.30;99.90;;;3.93;99.79;98387.66;10376625;28;20603;-63
2024/02/13 21:37:24;;;;;;;7.00;5.90;;;3.20;99.90;;;3.91;100.00;98381.56;10381377;28;20814;-63